Sawyer International Airport Marquette US
ICAO: KSAW
IATA: SAW
Category: Medium
Scheduled Services: No

Elevation: 1221 ft
TransAlt. 18000 ft.

Airport Communications:
AWOS 3:118.375
MINNEAPOLIS CNTR:119.1
CTAF:119.975
GND:121.65
GREEN BAY RDO:123.6
TWR:119.975
UNICOM:122.7

KSAW Zoom In..

Runways:

(A) RW 01 length 12366 ft width 150 ft
ILS 110.10 / hdg 13

(B) RW 19 length 12366 ft width 150 ft
---- / hdg 193

Location; KSAW
Day. 14 / Time. 13.46 Zulu
* Altimeter: 29.92
* Temperature: 24° c. 75.2°f.
* Wind from: 300° Speed 07 kn.
Dewpoint: 18° c.
Visibility: 10 Statute Miles.
Clouds: Clear (manual report).

KSAW 141346Z 30007KT 10SM SKC 24/18 A2992


Wind From 300°
Speed 07 kn.

 
 
jpsmedia.com for Web Design worldairports.se 2018   terms of use